Daily Tabular Data
[Select Refresh to Update]


8/17/19
Time         Wind Dir   Wind Spd  Wind Gust     Hum In   Humidity    Temp In       Temp  Raw Barom   Tot Rain Wind Chill Heat Ix In Heat Index  Dew Point  DailyRain   HourRain   RainRate
                            mph        mph          %          %         F         F         in         in         F         F         F         F         in         in      in/hr
12:00am            71          0          6         55         87       75.9       64.3      29.07       0.07       64.3       77.2       69.5       60.4       0.00       0.00      0.000
12:30am            75          2          6         55         87       75.6       64.0      29.07       0.07       64.0       76.9       69.2       60.1       0.00       0.00      0.000
1:00am            161          2          7         55         86       75.2       63.8      29.06       0.07       63.8       76.5       68.9       59.5       0.00       0.00      0.000
1:30am            184          0          4         55         87       75.0       63.9      29.06       0.07       63.9       76.3       69.1       60.0       0.00       0.00      0.000
2:00am             64          2          8         55         88       74.8       63.3      29.06       0.07       63.3       76.1       68.6       59.7       0.00       0.00      0.000
2:30am             98          4          9         55         88       74.6       63.0      29.06       0.07       63.0       75.9       68.3       59.4       0.00       0.00      0.000
3:00am            168          1          9         55         89       74.3       62.7      29.06       0.07       62.7       75.6       68.2       59.4       0.00       0.00      0.000
3:30am             94          3          6         55         87       74.1       62.5      29.05       0.07       62.5       75.4       67.7       58.6       0.00       0.00      0.000
4:00am             74          1          6         55         88       73.8       62.2      29.05       0.07       62.2       75.1       67.5       58.6       0.00       0.00      0.000
4:30am             41          1          5         55         87       73.7       62.2      29.05       0.07       62.2       75.0       67.4       58.3       0.00       0.00      0.000
5:00am             94          2          9         55         87       73.4       62.0      29.05       0.07       62.0       74.7       67.2       58.1       0.00       0.00      0.000
5:30am             62          3          6         54         86       73.6       62.4      29.06       0.07       62.4       74.8       67.5       58.2       0.00       0.00      0.000
6:00am             86          2          7         54         87       73.9       61.9      29.06       0.07       61.9       75.1       67.1       58.0       0.00       0.00      0.000
6:30am             68          0          9         54         87       73.8       61.6      29.07       0.07       61.6       75.0       66.8       57.7       0.00       0.00      0.000
7:00am             51          0          6         54         86       73.7       61.6      29.07       0.07       61.6       74.9       66.7       57.4       0.00       0.00      0.000
7:30am             64          0          5         53         86       73.7       62.1      29.07       0.07       62.1       74.8       67.2       57.9       0.00       0.00      0.000
8:00am             19          0          4         54         85       73.6       62.4      29.08       0.07       62.4       74.8       67.3       57.8       0.00       0.00      0.000
8:30am             69          2          4         54         83       73.6       63.7      29.08       0.07       63.7       74.8       68.3       58.4       0.00       0.00      0.000
9:00am            167          1          7         54         82       73.8       64.9      29.09       0.07       64.9       75.0       69.4       59.3       0.00       0.00      0.000
9:30am            192          0          6         54         76       74.1       66.9      29.08       0.07       66.9       75.3       70.6       59.1       0.00       0.00      0.000
10:00am           170          4          4         54         71       74.5       70.6      29.08       0.07       70.6       75.7       73.7       60.8       0.00       0.00      0.000
10:30am           237          0          6         54         71       75.0       71.0      29.07       0.07       71.0       76.2       74.1       61.1       0.00       0.00      0.000
11:00am           138          1          7         53         62       75.5       75.7      29.07       0.07       75.7       76.6       77.7       61.8       0.00       0.00      0.000
11:30am           232          0          7         54         60       76.1       76.1      29.06       0.07       76.1       77.3       77.9       61.2       0.00       0.00      0.000
12:00pm           101         11         11         53         56       77.1       80.1      29.06       0.07       80.1       78.2       81.5       63.0       0.00       0.00      0.000
12:30pm           221          3         11         52         52       77.9       80.6      29.06       0.07       80.6       78.9       81.6       61.4       0.00       0.00      0.000
1:00pm            246          3          8         51         57       78.5       79.3      29.05       0.07       79.3       79.4       80.8       62.8       0.00       0.00      0.000
1:30pm            244          0          9         51         56       79.3       79.9      29.04       0.07       79.9       80.2       81.3       62.8       0.00       0.00      0.000
2:00pm            238          2          9         51         51       79.8       84.0      29.03       0.07       84.0       80.7       85.3       63.9       0.00       0.00      0.000
2:30pm            259          8         10         50         52       80.5       82.4      29.03       0.07       82.4       81.3       83.5       63.0       0.00       0.00      0.000
3:00pm            256          2         12         51         56       80.6       80.4      29.02       0.07       80.4       81.5       81.8       63.3       0.00       0.00      0.000
3:30pm            226          2         11         49         55       79.4       80.7      29.01       0.07       80.7       80.1       82.0       63.0       0.00       0.00      0.000
4:00pm            251          4         11         50         59       78.6       79.0      29.00       0.07       79.0       79.4       80.7       63.5       0.00       0.00      0.000
4:30pm            232          2          9         50         57       78.3       80.2      28.99       0.07       80.2       79.1       81.7       63.6       0.00       0.00      0.000
5:00pm            241          0          7         48         57       79.0       80.6      29.00       0.07       80.6       79.6       82.2       64.0       0.00       0.00      0.000
5:30pm            194          2         11         47         60       79.3       79.0      29.00       0.07       79.0       79.8       80.8       63.9       0.00       0.00      0.000
6:00pm            169          5          9         47         62       78.8       76.3      28.99       0.07       76.3       79.3       78.3       62.3       0.00       0.00      0.000
6:30pm            182          3          9         49         67       79.6       73.5      28.99       0.07       73.5       80.3       76.1       61.9       0.00       0.00      0.000
7:00pm            180          4         10         50         72       79.3       70.8      28.99       0.07       70.8       80.1       74.0       61.3       0.00       0.00      0.000
7:30pm            171          6          8         51         78       78.6       68.1      28.99       0.07       68.1       79.5       72.1       61.0       0.00       0.00      0.000
8:00pm            198          1          7         52         82       77.8       66.2      29.00       0.07       66.2       78.8       70.7       60.5       0.00       0.00      0.000
8:30pm            107          4          6         53         85       77.1       65.6      29.02       0.07       65.6       78.2       70.5       61.0       0.00       0.00      0.000
9:00pm            159          0          6         54         84       76.7       66.0      29.02       0.07       66.0       77.9       70.8       61.0       0.00       0.00      0.000
9:30pm            132          0          7         54         88       76.6       66.0      29.03       0.07       66.0       77.8       71.3       62.3       0.00       0.00      0.000
10:00pm           113          2          4         54         85       76.6       65.4      29.03       0.07       65.4       77.8       70.3       60.8       0.00       0.00      0.000
10:30pm           117          0          6         54         85       76.4       65.2      29.03       0.07       65.2       77.6       70.1       60.6       0.00       0.00      0.000
11:00pm           101          0          3         54         85       76.2       65.2      29.04       0.07       65.2       77.4       70.1       60.6       0.00       0.00      0.000
11:30pm            76          4          4         55         86       76.2       65.1      29.04       0.07       65.1       77.5       70.2       60.8       0.00       0.00      0.000